Terminal Aerodrome Forecast
Issued by NWS Green Bay, WI

Home | Current Version | Previous Version | Text Only | Print | Product List | Glossary Off
Versions: 1 2 3 4 5 6 7 8 9 10 11 12 13 14 15 16 17 18 19 20 21 22 23 24 25 26 27 28 29 30 31 32 33 34 35 36 37

000
FTUS43 KGRB 160500
TAFGRB
TAF
KGRB 160534Z 1606/1706 07005KT 5SM BR BKN014 OVC021
      TEMPO 1606/1608 1SM -RA BR BKN003 OVC014
     FM160800 04005KT 2SM -RA BR OVC007
     FM161400 01009KT 1 1/2SM -RASN BR OVC005
     FM161700 34012KT 2SM -SN BR OVC007
     FM162000 32015KT 6SM BR OVC018
      TEMPO 1620/1624 3SM -SN BR OVC012
     FM170000 30013KT P6SM SCT018 OVC025 PROB30 1700/1704 4SM -SN
      OVC018=

USA.gov is the U.S. government's official web portal to all federal, state and local government web resources and services.